Time;durP1;ratioP1;P1;durP2;ratioP2;P2;SDS_P1;SDS_P2;PMS_P1;PMS_P2;Temp;Humidity;BMP_temperature;BMP_pressure;BME280_temperature;BME280_humidity;BME280_pressure;Samples;Min_cycle;Max_cycle;Signal;HPM_P1;HPM_P2
2022/08/01 00:00:33;;;;;;;398.05;249.25;;;;;;;;;;5011521;28;20304;-49
2022/08/01 00:02:59;;;;;;;422.98;267.45;;;;;;;;;;5011609;28;20220;-49
2022/08/01 00:05:25;;;;;;;435.15;263.85;;;;;;;;;;5010496;28;20596;-49
2022/08/01 00:07:51;;;;;;;391.10;246.05;;;;;;;;;;5019355;28;20216;-49
2022/08/01 00:10:17;;;;;;;419.27;259.55;;;;;;;;;;5015483;28;20248;-49
2022/08/01 00:12:44;;;;;;;416.30;259.48;;;;;;;;;;5011425;28;20232;-49
2022/08/01 00:15:11;;;;;;;406.63;254.95;;;;;;;;;;5016252;28;20326;-49
2022/08/01 00:17:37;;;;;;;440.13;267.50;;;;;;;;;;5005952;28;20491;-49
2022/08/01 00:20:04;;;;;;;378.58;238.00;;;;;;;;;;5020487;28;20218;-49
2022/08/01 00:22:34;;;;;;;400.27;246.93;;;;;;;;;;5000643;28;20236;-49
2022/08/01 00:25:00;;;;;;;396.85;235.48;;;;;;;;;;5009538;28;20220;-49
2022/08/01 00:27:26;;;;;;;421.88;256.08;;;;;;;;;;5005001;28;20242;-49
2022/08/01 00:29:52;;;;;;;381.83;238.45;;;;;;;;;;5017635;28;20215;-49
2022/08/01 00:32:18;;;;;;;436.90;266.58;;;;;;;;;;5009554;28;20525;-49
2022/08/01 00:34:44;;;;;;;428.90;261.98;;;;;;;;;;5008663;28;20288;-49
2022/08/01 00:37:10;;;;;;;428.15;262.92;;;;;;;;;;5011164;28;20252;-49
2022/08/01 00:39:36;;;;;;;479.23;279.98;;;;;;;;;;5006622;28;20923;-50
2022/08/01 00:42:09;;;;;;;400.13;249.38;;;;;;;;;;5011118;28;20640;-49
2022/08/01 00:44:35;;;;;;;401.65;249.93;;;;;;;;;;5011627;28;20227;-49
2022/08/01 00:47:01;;;;;;;425.52;262.20;;;;;;;;;;5017160;28;20213;-49
2022/08/01 00:49:28;;;;;;;408.20;251.25;;;;;;;;;;5013870;28;20203;-49
2022/08/01 00:51:54;;;;;;;409.20;252.55;;;;;;;;;;5007678;28;20287;-49
2022/08/01 00:54:20;;;;;;;401.23;247.10;;;;;;;;;;5013715;28;20251;-49
2022/08/01 00:56:46;;;;;;;448.50;271.00;;;;;;;;;;5013011;28;20228;-49
2022/08/01 00:59:12;;;;;;;388.92;232.68;;;;;;;;;;5014772;28;20220;-49
2022/08/01 01:01:38;;;;;;;421.20;259.52;;;;;;;;;;5008907;28;20251;-49
2022/08/01 01:04:04;;;;;;;388.15;239.38;;;;;;;;;;5002807;28;20246;-50
2022/08/01 01:06:33;;;;;;;451.17;263.42;;;;;;;;;;5015066;28;20595;-49
2022/08/01 01:09:10;;;;;;;387.40;234.48;;;;;;;;;;5021293;28;20605;-49
2022/08/01 01:11:39;;;;;;;405.17;242.85;;;;;;;;;;5017598;28;20223;-49
2022/08/01 01:14:09;;;;;;;375.50;231.10;;;;;;;;;;5020172;28;20192;-49
2022/08/01 01:16:36;;;;;;;368.63;224.10;;;;;;;;;;5013933;28;20176;-49
2022/08/01 01:19:04;;;;;;;379.25;231.00;;;;;;;;;;5017704;28;20235;-49
2022/08/01 01:21:35;;;;;;;419.15;250.60;;;;;;;;;;5019588;28;20235;-49
2022/08/01 01:24:11;;;;;;;377.98;229.88;;;;;;;;;;5016380;28;20212;-49
2022/08/01 01:26:44;;;;;;;385.50;228.63;;;;;;;;;;5015658;28;20321;-49
2022/08/01 01:29:17;;;;;;;379.65;222.65;;;;;;;;;;5018952;28;20231;-49
2022/08/01 01:31:57;;;;;;;418.92;242.88;;;;;;;;;;5013492;28;20180;-49
2022/08/01 01:34:24;;;;;;;391.95;232.05;;;;;;;;;;5016372;28;20246;-49
2022/08/01 01:36:50;;;;;;;385.70;229.95;;;;;;;;;;5014455;28;20636;-49
2022/08/01 01:39:17;;;;;;;394.17;233.23;;;;;;;;;;5016171;28;20741;-49
2022/08/01 01:41:45;;;;;;;409.75;240.30;;;;;;;;;;5013885;28;20236;-49
2022/08/01 01:44:11;;;;;;;404.60;238.00;;;;;;;;;;5016489;28;20230;-49
2022/08/01 01:46:37;;;;;;;388.42;229.43;;;;;;;;;;5014112;28;20626;-49
2022/08/01 01:49:04;;;;;;;405.05;242.18;;;;;;;;;;5015547;28;20223;-49
2022/08/01 01:51:30;;;;;;;383.02;229.13;;;;;;;;;;5017997;28;20363;-49
2022/08/01 01:53:58;;;;;;;404.55;239.68;;;;;;;;;;5012620;28;20359;-49
2022/08/01 01:56:24;;;;;;;412.42;241.15;;;;;;;;;;5013885;28;20215;-49
2022/08/01 01:58:55;;;;;;;399.75;235.65;;;;;;;;;;5015001;28;20204;-49
2022/08/01 02:01:24;;;;;;;382.85;222.77;;;;;;;;;;5012644;28;20222;-49
2022/08/01 02:03:51;;;;;;;395.67;230.80;;;;;;;;;;5013378;28;20251;-49
2022/08/01 02:06:17;;;;;;;387.83;222.85;;;;;;;;;;5008551;28;20221;-49
2022/08/01 02:08:43;;;;;;;427.02;241.88;;;;;;;;;;5013531;28;20933;-49
2022/08/01 02:11:18;;;;;;;459.60;259.98;;;;;;;;;;5017130;28;20605;-49
2022/08/01 02:13:47;;;;;;;371.75;214.90;;;;;;;;;;5017956;28;20291;-49
2022/08/01 02:16:13;;;;;;;437.88;249.82;;;;;;;;;;5012551;28;20255;-49
2022/08/01 02:18:39;;;;;;;380.48;220.30;;;;;;;;;;5014058;28;20227;-49
2022/08/01 02:21:08;;;;;;;507.75;282.02;;;;;;;;;;5016051;28;20687;-49
2022/08/01 02:23:36;;;;;;;385.77;223.00;;;;;;;;;;5014499;28;20216;-49
2022/08/01 02:26:03;;;;;;;436.65;249.52;;;;;;;;;;5009675;28;20181;-49
2022/08/01 02:28:31;;;;;;;399.80;230.40;;;;;;;;;;5013682;28;20696;-49
2022/08/01 02:31:00;;;;;;;437.83;244.50;;;;;;;;;;5012879;28;20529;-49
2022/08/01 02:33:31;;;;;;;389.55;226.48;;;;;;;;;;5017805;28;20246;-49
2022/08/01 02:35:58;;;;;;;402.40;228.80;;;;;;;;;;5013150;28;20278;-48
2022/08/01 02:38:26;;;;;;;411.90;233.13;;;;;;;;;;5011748;28;20543;-48
2022/08/01 02:40:53;;;;;;;387.27;222.23;;;;;;;;;;5018322;28;20549;-49
2022/08/01 02:43:21;;;;;;;379.00;217.10;;;;;;;;;;5007595;28;20710;-49
2022/08/01 02:45:50;;;;;;;439.23;250.63;;;;;;;;;;5009266;28;20216;-49
2022/08/01 02:48:17;;;;;;;418.15;242.63;;;;;;;;;;5010539;28;20227;-49
2022/08/01 02:50:45;;;;;;;412.60;236.00;;;;;;;;;;5011470;28;20678;-49
2022/08/01 02:53:12;;;;;;;380.58;221.57;;;;;;;;;;5014715;28;20234;-49
2022/08/01 02:55:39;;;;;;;507.90;288.83;;;;;;;;;;5004347;28;20193;-49
2022/08/01 02:58:06;;;;;;;371.17;218.35;;;;;;;;;;5013485;28;20217;-49
2022/08/01 03:00:34;;;;;;;402.17;235.25;;;;;;;;;;5014383;28;20231;-49
2022/08/01 03:03:01;;;;;;;370.35;219.32;;;;;;;;;;5012068;28;20216;-49
2022/08/01 03:05:27;;;;;;;411.10;235.20;;;;;;;;;;5014054;28;20328;-49
2022/08/01 03:07:54;;;;;;;380.80;219.68;;;;;;;;;;5006058;28;20216;-49
2022/08/01 03:10:20;;;;;;;402.05;231.18;;;;;;;;;;5012356;28;20533;-49
2022/08/01 03:12:47;;;;;;;384.58;222.15;;;;;;;;;;5010530;28;20288;-49
2022/08/01 03:15:14;;;;;;;436.30;252.63;;;;;;;;;;5011672;28;20310;-49
2022/08/01 03:17:41;;;;;;;456.00;261.30;;;;;;;;;;5002768;28;20849;-48
2022/08/01 03:20:08;;;;;;;388.13;228.25;;;;;;;;;;5005193;28;20192;-48
2022/08/01 03:22:35;;;;;;;483.88;278.13;;;;;;;;;;5004828;28;20176;-49
2022/08/01 03:25:02;;;;;;;388.08;232.93;;;;;;;;;;5013919;28;20704;-49
2022/08/01 03:27:28;;;;;;;389.45;231.10;;;;;;;;;;5007704;28;20224;-49
2022/08/01 03:29:56;;;;;;;363.73;219.85;;;;;;;;;;5009107;28;20716;-49
2022/08/01 03:32:22;;;;;;;447.90;252.65;;;;;;;;;;5011673;28;20694;-49
2022/08/01 03:34:48;;;;;;;426.20;250.52;;;;;;;;;;5007677;28;20223;-49
2022/08/01 03:37:17;;;;;;;409.10;235.38;;;;;;;;;;5003981;28;20227;-49
2022/08/01 03:39:50;;;;;;;429.35;248.43;;;;;;;;;;5013232;28;20228;-49
2022/08/01 03:42:18;;;;;;;403.75;232.38;;;;;;;;;;5014370;28;20255;-49
2022/08/01 03:44:48;;;;;;;418.23;248.15;;;;;;;;;;5015019;28;20225;-49
2022/08/01 03:47:15;;;;;;;417.08;245.25;;;;;;;;;;5009931;28;20668;-49
2022/08/01 03:49:46;;;;;;;386.63;225.77;;;;;;;;;;5017661;28;20760;-49
2022/08/01 03:52:13;;;;;;;392.65;230.93;;;;;;;;;;5010125;28;20228;-48
2022/08/01 03:54:45;;;;;;;388.88;227.05;;;;;;;;;;5010913;28;20228;-49
2022/08/01 03:57:11;;;;;;;393.40;227.82;;;;;;;;;;5011743;28;20224;-49
2022/08/01 03:59:38;;;;;;;423.13;248.27;;;;;;;;;;5015571;28;20232;-49
2022/08/01 04:02:04;;;;;;;417.20;240.32;;;;;;;;;;5011886;28;20192;-49
2022/08/01 04:04:31;;;;;;;391.70;227.35;;;;;;;;;;5012793;28;20636;-49
2022/08/01 04:06:57;;;;;;;381.58;221.93;;;;;;;;;;5008780;28;20568;-48
2022/08/01 04:09:23;;;;;;;378.63;219.15;;;;;;;;;;5013601;28;20217;-49
2022/08/01 04:11:49;;;;;;;440.95;252.23;;;;;;;;;;5007945;28;20630;-49
2022/08/01 04:14:15;;;;;;;410.10;234.00;;;;;;;;;;5009795;28;20235;-49
2022/08/01 04:16:41;;;;;;;411.80;231.68;;;;;;;;;;5008230;28;20212;-49
2022/08/01 04:19:10;;;;;;;395.77;230.27;;;;;;;;;;5011272;28;20227;-49
2022/08/01 04:21:36;;;;;;;394.27;226.15;;;;;;;;;;5018093;28;20692;-49
2022/08/01 04:24:04;;;;;;;389.92;225.25;;;;;;;;;;5014458;28;20331;-49
2022/08/01 04:26:32;;;;;;;401.73;219.95;;;;;;;;;;5019663;28;20556;-49
2022/08/01 04:29:01;;;;;;;359.90;207.35;;;;;;;;;;5018502;28;20188;-49
2022/08/01 04:31:27;;;;;;;368.52;208.30;;;;;;;;;;5018894;28;20268;-49
2022/08/01 04:33:54;;;;;;;384.25;216.98;;;;;;;;;;5015133;28;20224;-49
2022/08/01 04:36:22;;;;;;;370.52;206.82;;;;;;;;;;5022505;28;20235;-49
2022/08/01 04:38:50;;;;;;;421.20;238.00;;;;;;;;;;5021417;28;20621;-48
2022/08/01 04:41:17;;;;;;;415.45;235.32;;;;;;;;;;5013978;28;20764;-49
2022/08/01 04:43:43;;;;;;;378.30;216.18;;;;;;;;;;5015821;28;20725;-49
2022/08/01 04:46:10;;;;;;;422.10;235.68;;;;;;;;;;5015292;28;20216;-49
2022/08/01 04:48:37;;;;;;;424.08;233.77;;;;;;;;;;5009425;28;20228;-49
2022/08/01 04:51:03;;;;;;;411.90;234.77;;;;;;;;;;5020871;28;20736;-49
2022/08/01 04:53:32;;;;;;;417.90;236.23;;;;;;;;;;5017584;28;20229;-49
2022/08/01 04:55:58;;;;;;;378.33;219.13;;;;;;;;;;5022538;28;20566;-49
2022/08/01 04:58:24;;;;;;;395.30;228.43;;;;;;;;;;5022675;28;20239;-49
2022/08/01 05:00:50;;;;;;;416.17;236.60;;;;;;;;;;5015939;28;20224;-49
2022/08/01 05:03:16;;;;;;;379.52;216.38;;;;;;;;;;5016655;28;20728;-49
2022/08/01 05:05:42;;;;;;;438.58;240.88;;;;;;;;;;5011761;28;20254;-49
2022/08/01 05:08:07;;;;;;;385.77;216.75;;;;;;;;;;5019058;28;20536;-49
2022/08/01 05:10:34;;;;;;;397.45;222.93;;;;;;;;;;5019279;28;20188;-49
2022/08/01 05:13:00;;;;;;;407.45;230.52;;;;;;;;;;5013190;28;20287;-49
2022/08/01 05:15:26;;;;;;;441.17;244.15;;;;;;;;;;5018848;28;20220;-48
2022/08/01 05:17:52;;;;;;;395.35;225.27;;;;;;;;;;5010561;28;20228;-49
2022/08/01 05:20:18;;;;;;;440.23;245.77;;;;;;;;;;5013239;28;20290;-50
2022/08/01 05:22:44;;;;;;;409.67;233.48;;;;;;;;;;5014044;28;20192;-50
2022/08/01 05:25:10;;;;;;;387.55;222.52;;;;;;;;;;5019190;28;20570;-50
2022/08/01 05:27:40;;;;;;;434.17;241.68;;;;;;;;;;5000582;28;20285;-50
2022/08/01 05:30:09;;;;;;;426.50;239.35;;;;;;;;;;4994411;28;20248;-50
2022/08/01 05:32:36;;;;;;;379.58;216.40;;;;;;;;;;5018875;28;20216;-50
2022/08/01 05:35:02;;;;;;;411.48;234.30;;;;;;;;;;5018699;28;20207;-50
2022/08/01 05:37:28;;;;;;;423.88;243.10;;;;;;;;;;5015687;28;20258;-49
2022/08/01 05:39:54;;;;;;;419.92;240.73;;;;;;;;;;5018661;28;20292;-50
2022/08/01 05:42:19;;;;;;;402.17;240.52;;;;;;;;;;5011884;28;20287;-51
2022/08/01 05:44:45;;;;;;;381.17;224.20;;;;;;;;;;5018126;28;20220;-49
2022/08/01 05:47:11;;;;;;;479.05;273.02;;;;;;;;;;5004080;28;20231;-50
2022/08/01 05:49:37;;;;;;;428.30;251.05;;;;;;;;;;5009651;28;20200;-50
2022/08/01 05:52:04;;;;;;;441.65;250.82;;;;;;;;;;5009552;28;20228;-50
2022/08/01 05:54:30;;;;;;;424.25;249.07;;;;;;;;;;5013468;28;20212;-50
2022/08/01 05:56:59;;;;;;;451.15;264.58;;;;;;;;;;5018659;28;20228;-50
2022/08/01 05:59:25;;;;;;;375.23;223.43;;;;;;;;;;5017705;28;20676;-50
2022/08/01 06:01:51;;;;;;;368.65;225.20;;;;;;;;;;5016832;28;20187;-50
2022/08/01 06:04:17;;;;;;;434.65;252.43;;;;;;;;;;5016906;28;20836;-50
2022/08/01 06:06:43;;;;;;;431.95;252.43;;;;;;;;;;5013191;28;20282;-50
2022/08/01 06:09:09;;;;;;;438.50;254.95;;;;;;;;;;5005060;28;20228;-50
2022/08/01 06:11:35;;;;;;;425.30;248.98;;;;;;;;;;5008808;28;20858;-50
2022/08/01 06:14:01;;;;;;;407.92;250.05;;;;;;;;;;5007601;28;20384;-51
2022/08/01 06:16:27;;;;;;;416.52;247.52;;;;;;;;;;5018480;28;20176;-50
2022/08/01 06:18:53;;;;;;;382.77;229.30;;;;;;;;;;5021506;28;20216;-50
2022/08/01 06:21:19;;;;;;;455.50;271.98;;;;;;;;;;5018038;28;20220;-48
2022/08/01 06:23:45;;;;;;;425.38;256.33;;;;;;;;;;5021645;28;20328;-48
2022/08/01 06:26:11;;;;;;;431.17;255.75;;;;;;;;;;5014898;28;20636;-48
2022/08/01 06:28:38;;;;;;;442.63;259.20;;;;;;;;;;5010656;28;20285;-48
2022/08/01 06:31:04;;;;;;;417.45;253.85;;;;;;;;;;5018014;28;20298;-48
2022/08/01 06:33:30;;;;;;;444.13;267.17;;;;;;;;;;5011151;28;20216;-48
2022/08/01 06:35:56;;;;;;;449.98;272.25;;;;;;;;;;5009626;28;20219;-48
2022/08/01 06:38:24;;;;;;;443.33;257.23;;;;;;;;;;5016481;28;20224;-48
2022/08/01 06:40:50;;;;;;;417.38;241.88;;;;;;;;;;5019569;28;20203;-48
2022/08/01 06:43:15;;;;;;;446.38;253.73;;;;;;;;;;5014951;28;20239;-48
2022/08/01 06:45:42;;;;;;;442.08;264.27;;;;;;;;;;5013068;28;20485;-48
2022/08/01 06:48:08;;;;;;;411.98;239.25;;;;;;;;;;5015070;28;20577;-48
2022/08/01 06:50:35;;;;;;;426.70;251.77;;;;;;;;;;5013205;28;20599;-48
2022/08/01 06:53:01;;;;;;;437.83;270.95;;;;;;;;;;5009479;28;20184;-48
2022/08/01 06:55:27;;;;;;;628.10;365.45;;;;;;;;;;4993343;28;20581;-48
2022/08/01 06:57:53;;;;;;;435.10;272.95;;;;;;;;;;5000889;28;20246;-48
2022/08/01 07:00:22;;;;;;;476.55;281.15;;;;;;;;;;5000313;28;20669;-48
2022/08/01 07:02:48;;;;;;;404.65;254.07;;;;;;;;;;5006926;28;20217;-48
2022/08/01 07:05:14;;;;;;;470.10;271.77;;;;;;;;;;5007951;28;20227;-48
2022/08/01 07:07:40;;;;;;;496.55;282.05;;;;;;;;;;5004573;28;20351;-48
2022/08/01 07:10:08;;;;;;;420.60;247.20;;;;;;;;;;5005878;28;20797;-48
2022/08/01 07:12:36;;;;;;;420.75;257.90;;;;;;;;;;4995729;28;20680;-48
2022/08/01 07:15:02;;;;;;;433.17;265.77;;;;;;;;;;4996276;28;20247;-48
2022/08/01 07:17:28;;;;;;;484.70;295.58;;;;;;;;;;4996193;28;20231;-48
2022/08/01 07:19:54;;;;;;;478.55;297.50;;;;;;;;;;4998789;28;20502;-48
2022/08/01 07:22:20;;;;;;;509.17;310.05;;;;;;;;;;5000105;28;20490;-48
2022/08/01 07:24:47;;;;;;;495.35;312.08;;;;;;;;;;5004817;28;20228;-48
2022/08/01 07:27:14;;;;;;;435.33;284.20;;;;;;;;;;5000690;28;20286;-48
2022/08/01 07:29:40;;;;;;;490.08;300.42;;;;;;;;;;4996011;28;20404;-49
2022/08/01 07:32:06;;;;;;;467.27;292.92;;;;;;;;;;5004353;28;20185;-52
2022/08/01 07:34:32;;;;;;;435.70;273.23;;;;;;;;;;5004309;28;20195;-51
2022/08/01 07:36:58;;;;;;;441.80;280.63;;;;;;;;;;5012760;28;20223;-51
2022/08/01 07:39:23;;;;;;;510.67;315.30;;;;;;;;;;5009066;28;20905;-51
2022/08/01 07:41:49;;;;;;;397.13;262.90;;;;;;;;;;5013488;28;20223;-51
2022/08/01 07:44:15;;;;;;;458.80;289.58;;;;;;;;;;5005653;28;20228;-51
2022/08/01 07:46:41;;;;;;;460.35;289.35;;;;;;;;;;5012713;28;20211;-51
2022/08/01 07:49:08;;;;;;;438.17;272.90;;;;;;;;;;5009370;28;20242;-51
2022/08/01 07:51:33;;;;;;;405.63;262.95;;;;;;;;;;5002237;28;20684;-51
2022/08/01 07:53:59;;;;;;;455.65;287.38;;;;;;;;;;5013972;28;20665;-51
2022/08/01 07:56:26;;;;;;;417.40;260.77;;;;;;;;;;5011753;28;20231;-51
2022/08/01 07:58:52;;;;;;;486.40;307.30;;;;;;;;;;5013185;28;20628;-52
2022/08/01 08:01:19;;;;;;;409.88;249.20;;;;;;;;;;5015214;28;20219;-52
2022/08/01 08:03:45;;;;;;;402.95;241.45;;;;;;;;;;5013520;28;20417;-51
2022/08/01 08:06:11;;;;;;;498.90;287.15;;;;;;;;;;5008533;28;20219;-51
2022/08/01 08:08:37;;;;;;;471.92;273.08;;;;;;;;;;5009438;28;20788;-51
2022/08/01 08:11:03;;;;;;;449.20;265.30;;;;;;;;;;5004732;28;20189;-51
2022/08/01 08:13:29;;;;;;;431.20;254.23;;;;;;;;;;5009068;28;20244;-51
2022/08/01 08:15:55;;;;;;;478.27;280.65;;;;;;;;;;5007586;28;20224;-51
2022/08/01 08:18:21;;;;;;;455.38;270.23;;;;;;;;;;5014543;28;20809;-51
2022/08/01 08:20:47;;;;;;;451.98;273.45;;;;;;;;;;5013730;28;20588;-51
2022/08/01 08:25:58;;;;;;;385.38;230.10;;;;;;;;;;5011959;28;20211;-51
2022/08/01 08:28:24;;;;;;;468.08;270.38;;;;;;;;;;5013070;28;20223;-51
2022/08/01 08:30:50;;;;;;;457.75;280.70;;;;;;;;;;5014496;28;20231;-51
2022/08/01 08:33:16;;;;;;;470.67;280.75;;;;;;;;;;5013537;28;21551;-51
2022/08/01 08:35:41;;;;;;;442.00;279.45;;;;;;;;;;5005599;28;20557;-51
2022/08/01 08:38:08;;;;;;;406.25;260.42;;;;;;;;;;5018038;28;20207;-52
2022/08/01 08:40:35;;;;;;;405.15;263.98;;;;;;;;;;5008054;28;20192;-50
2022/08/01 08:43:02;;;;;;;414.85;264.95;;;;;;;;;;5012733;28;20225;-50
2022/08/01 08:45:28;;;;;;;471.95;293.80;;;;;;;;;;5014319;28;20220;-50
2022/08/01 08:47:55;;;;;;;399.00;254.75;;;;;;;;;;5012060;28;20228;-51
2022/08/01 08:50:21;;;;;;;477.42;293.38;;;;;;;;;;5015725;28;20672;-50
2022/08/01 08:52:48;;;;;;;419.20;266.52;;;;;;;;;;5012415;28;20211;-50
2022/08/01 08:55:16;;;;;;;417.10;266.80;;;;;;;;;;5017839;28;20216;-50
2022/08/01 08:57:43;;;;;;;461.38;295.08;;;;;;;;;;5011882;28;21113;-51
2022/08/01 09:00:10;;;;;;;410.98;264.92;;;;;;;;;;5010658;28;20220;-50
2022/08/01 09:02:36;;;;;;;409.27;256.15;;;;;;;;;;5016699;28;20258;-51
2022/08/01 09:05:02;;;;;;;418.98;268.00;;;;;;;;;;5012810;28;20184;-50
2022/08/01 09:07:28;;;;;;;446.83;272.67;;;;;;;;;;5015115;28;20869;-51
2022/08/01 09:09:54;;;;;;;457.48;283.08;;;;;;;;;;5014878;28;20230;-50
2022/08/01 09:12:20;;;;;;;411.60;262.67;;;;;;;;;;5014866;28;20548;-50
2022/08/01 09:14:47;;;;;;;472.40;295.17;;;;;;;;;;5012168;28;20327;-50
2022/08/01 09:17:13;;;;;;;476.00;301.80;;;;;;;;;;5009008;28;20706;-51
2022/08/01 09:19:39;;;;;;;437.00;280.20;;;;;;;;;;5010602;28;20189;-51
2022/08/01 09:22:06;;;;;;;427.80;269.60;;;;;;;;;;5017879;28;20224;-51
2022/08/01 09:24:33;;;;;;;436.05;268.70;;;;;;;;;;5021356;28;20227;-50
2022/08/01 09:26:59;;;;;;;425.02;269.13;;;;;;;;;;5016911;28;20332;-50
2022/08/01 09:29:30;;;;;;;462.85;290.83;;;;;;;;;;5011864;28;20695;-50
2022/08/01 09:31:58;;;;;;;483.10;305.88;;;;;;;;;;5010010;28;20184;-50
2022/08/01 09:34:25;;;;;;;456.80;284.98;;;;;;;;;;5014025;28;20563;-51
2022/08/01 09:36:51;;;;;;;435.42;263.15;;;;;;;;;;5011528;28;20224;-51
2022/08/01 09:39:18;;;;;;;491.73;292.17;;;;;;;;;;5007037;28;20212;-50
2022/08/01 09:41:44;;;;;;;418.67;262.42;;;;;;;;;;5014001;28;20239;-50
2022/08/01 09:44:10;;;;;;;471.52;289.95;;;;;;;;;;5008791;28;20228;-51
2022/08/01 09:46:36;;;;;;;414.92;264.83;;;;;;;;;;5021524;28;20185;-51
2022/08/01 09:49:03;;;;;;;461.95;292.27;;;;;;;;;;5006211;28;20814;-50
2022/08/01 09:51:30;;;;;;;464.40;288.33;;;;;;;;;;5009999;28;20793;-50
2022/08/01 09:53:56;;;;;;;423.83;273.40;;;;;;;;;;5017723;28;20890;-51
2022/08/01 09:56:23;;;;;;;416.40;266.73;;;;;;;;;;5009756;28;20220;-51
2022/08/01 09:58:55;;;;;;;447.70;298.08;;;;;;;;;;5000043;28;20690;-50
2022/08/01 10:01:22;;;;;;;433.95;274.38;;;;;;;;;;5011478;28;20251;-50
2022/08/01 10:03:48;;;;;;;443.23;274.92;;;;;;;;;;5009936;28;20181;-50
2022/08/01 10:06:23;;;;;;;452.38;286.20;;;;;;;;;;5010806;28;20216;-50
2022/08/01 10:08:49;;;;;;;395.00;251.35;;;;;;;;;;5019351;28;20231;-50
2022/08/01 10:11:15;;;;;;;385.88;247.05;;;;;;;;;;5019548;28;20252;-50
2022/08/01 10:13:41;;;;;;;393.75;246.50;;;;;;;;;;5012393;28;20841;-51
2022/08/01 10:16:07;;;;;;;388.52;261.77;;;;;;;;;;5010874;28;20245;-51
2022/08/01 10:18:34;;;;;;;411.42;281.27;;;;;;;;;;5018685;28;20200;-51
2022/08/01 10:21:01;;;;;;;393.42;264.80;;;;;;;;;;5020804;28;20228;-51
2022/08/01 10:23:27;;;;;;;404.67;271.80;;;;;;;;;;5018663;28;20220;-51
2022/08/01 10:25:54;;;;;;;434.50;284.63;;;;;;;;;;5016015;28;20235;-51
2022/08/01 10:28:20;;;;;;;423.45;304.70;;;;;;;;;;5012770;28;20696;-51
2022/08/01 10:30:47;;;;;;;420.13;315.27;;;;;;;;;;5013588;28;20227;-51
2022/08/01 10:33:13;;;;;;;387.95;299.98;;;;;;;;;;5013526;28;20221;-51
2022/08/01 10:35:39;;;;;;;503.15;349.75;;;;;;;;;;5008499;28;20228;-51
2022/08/01 10:38:05;;;;;;;422.90;307.48;;;;;;;;;;5016124;28;20258;-51
2022/08/01 10:40:31;;;;;;;432.85;310.50;;;;;;;;;;5016711;28;20236;-51
2022/08/01 10:42:57;;;;;;;409.40;297.67;;;;;;;;;;5023412;28;20202;-50
2022/08/01 10:45:26;;;;;;;435.73;307.98;;;;;;;;;;5012085;28;20258;-51
2022/08/01 10:47:56;;;;;;;385.40;285.98;;;;;;;;;;5014903;28;20240;-51
2022/08/01 10:50:29;;;;;;;428.10;300.63;;;;;;;;;;5012146;28;20503;-51
2022/08/01 10:53:08;;;;;;;436.45;304.48;;;;;;;;;;5012346;28;20542;-50
2022/08/01 10:55:53;;;;;;;418.90;292.00;;;;;;;;;;5014142;28;20266;-51
2022/08/01 10:58:29;;;;;;;424.25;285.83;;;;;;;;;;5016353;28;20252;-50
2022/08/01 11:01:14;;;;;;;471.00;310.17;;;;;;;;;;5015923;28;20293;-50
2022/08/01 11:03:40;;;;;;;430.27;287.85;;;;;;;;;;5009549;28;20223;-51
2022/08/01 11:06:06;;;;;;;472.33;311.65;;;;;;;;;;5012014;28;20224;-50
2022/08/01 11:08:36;;;;;;;494.00;324.02;;;;;;;;;;5004246;28;20290;-51
2022/08/01 11:11:04;;;;;;;393.40;277.75;;;;;;;;;;5011623;28;20250;-51
2022/08/01 11:14:12;;;;;;;426.15;289.02;;;;;;;;;;5011563;28;20216;-51
2022/08/01 11:16:39;;;;;;;410.20;285.45;;;;;;;;;;5004371;28;20231;-51
2022/08/01 11:19:06;;;;;;;417.52;285.33;;;;;;;;;;5012137;28;20421;-51
2022/08/01 11:21:51;;;;;;;405.77;279.00;;;;;;;;;;5009003;28;20205;-51
2022/08/01 11:24:37;;;;;;;441.75;295.45;;;;;;;;;;5007231;28;20220;-51
2022/08/01 11:27:22;;;;;;;414.73;279.98;;;;;;;;;;5006141;28;20235;-50
2022/08/01 11:30:07;;;;;;;406.90;276.73;;;;;;;;;;5014950;28;20302;-51
2022/08/01 11:32:33;;;;;;;376.33;259.48;;;;;;;;;;5018591;28;20220;-50
2022/08/01 11:34:59;;;;;;;384.08;269.63;;;;;;;;;;5015532;28;20248;-51
2022/08/01 11:37:29;;;;;;;429.08;292.25;;;;;;;;;;5014638;28;20461;-51
2022/08/01 11:40:13;;;;;;;429.63;287.23;;;;;;;;;;5011217;28;20660;-51
2022/08/01 11:42:40;;;;;;;496.92;321.88;;;;;;;;;;5009796;28;20568;-51
2022/08/01 11:45:09;;;;;;;404.20;271.02;;;;;;;;;;5014876;28;20243;-51
2022/08/01 11:47:45;;;;;;;416.35;275.25;;;;;;;;;;5015624;28;20327;-51
2022/08/01 11:50:35;;;;;;;410.85;276.80;;;;;;;;;;5009156;28;20547;-51
2022/08/01 11:53:05;;;;;;;404.63;270.73;;;;;;;;;;5005622;28;20467;-51
2022/08/01 11:55:32;;;;;;;502.38;324.80;;;;;;;;;;5005947;28;20319;-51
2022/08/01 11:57:59;;;;;;;403.20;272.88;;;;;;;;;;5010946;28;20992;-51
2022/08/01 12:00:25;;;;;;;460.63;300.38;;;;;;;;;;5014607;28;20223;-51
2022/08/01 12:03:01;;;;;;;425.70;282.50;;;;;;;;;;5008771;28;20487;-51
2022/08/01 12:05:28;;;;;;;457.27;292.63;;;;;;;;;;5009712;28;20276;-51
2022/08/01 12:07:55;;;;;;;419.50;276.63;;;;;;;;;;5007350;28;20256;-51
2022/08/01 12:10:22;;;;;;;403.02;262.67;;;;;;;;;;5016014;28;20223;-50
2022/08/01 12:12:55;;;;;;;465.55;298.70;;;;;;;;;;5010210;28;20736;-51
2022/08/01 12:15:23;;;;;;;475.02;285.48;;;;;;;;;;5009716;28;20227;-50
2022/08/01 12:17:59;;;;;;;411.77;261.25;;;;;;;;;;5016184;28;20231;-50
2022/08/01 12:20:29;;;;;;;401.45;257.30;;;;;;;;;;5017727;28;20228;-50
2022/08/01 12:22:56;;;;;;;418.73;264.30;;;;;;;;;;5021770;28;20224;-51
2022/08/01 12:25:22;;;;;;;448.27;276.80;;;;;;;;;;5012970;28;20216;-51
2022/08/01 12:27:48;;;;;;;407.27;267.73;;;;;;;;;;5014368;28;20217;-51
2022/08/01 12:30:15;;;;;;;401.30;262.35;;;;;;;;;;5014887;28;20221;-51
2022/08/01 12:32:42;;;;;;;455.83;279.70;;;;;;;;;;5019319;28;20235;-51
2022/08/01 12:35:13;;;;;;;437.25;271.65;;;;;;;;;;5009600;28;20220;-51
2022/08/01 12:37:41;;;;;;;393.05;263.05;;;;;;;;;;5006943;28;20657;-51
2022/08/01 12:40:14;;;;;;;397.13;266.23;;;;;;;;;;5015232;28;20246;-51
2022/08/01 12:42:40;;;;;;;398.42;264.75;;;;;;;;;;5018411;28;20221;-51
2022/08/01 12:45:08;;;;;;;442.95;284.27;;;;;;;;;;5017213;28;20286;-51
2022/08/01 12:47:35;;;;;;;395.73;267.10;;;;;;;;;;5013417;28;20565;-51
2022/08/01 12:50:01;;;;;;;400.48;267.20;;;;;;;;;;5021421;28;20343;-51
2022/08/01 12:52:27;;;;;;;437.10;290.15;;;;;;;;;;5017495;28;20224;-51
2022/08/01 12:55:00;;;;;;;470.23;306.05;;;;;;;;;;5014125;28;20294;-51
2022/08/01 12:57:26;;;;;;;438.85;271.65;;;;;;;;;;5018420;28;20235;-51
2022/08/01 13:00:05;;;;;;;459.67;292.50;;;;;;;;;;5014983;28;20229;-51
2022/08/01 13:02:32;;;;;;;485.42;304.83;;;;;;;;;;5013895;28;20223;-51
2022/08/01 13:04:58;;;;;;;418.85;282.60;;;;;;;;;;5023890;28;20357;-51
2022/08/01 13:07:35;;;;;;;420.23;273.00;;;;;;;;;;5022654;28;20338;-51
2022/08/01 13:10:01;;;;;;;404.45;275.77;;;;;;;;;;5014414;28;20185;-51
2022/08/01 13:12:27;;;;;;;427.38;285.98;;;;;;;;;;5014480;28;20208;-51
2022/08/01 13:14:53;;;;;;;402.83;283.92;;;;;;;;;;5021256;28;20231;-51
2022/08/01 13:17:32;;;;;;;501.02;334.85;;;;;;;;;;5012503;28;20637;-51
2022/08/01 13:19:58;;;;;;;405.05;288.42;;;;;;;;;;5021229;28;20664;-51
2022/08/01 13:22:36;;;;;;;417.63;297.45;;;;;;;;;;5023556;28;20272;-51
2022/08/01 13:25:15;;;;;;;437.08;305.63;;;;;;;;;;5028391;28;20192;-51
2022/08/01 13:27:41;;;;;;;411.52;294.63;;;;;;;;;;5021525;28;20261;-51
2022/08/01 13:30:11;;;;;;;433.83;299.30;;;;;;;;;;5016189;28;20221;-51
2022/08/01 13:32:37;;;;;;;410.70;289.83;;;;;;;;;;5017301;28;20224;-51
2022/08/01 13:35:03;;;;;;;388.10;267.27;;;;;;;;;;5015274;28;20727;-51
2022/08/01 13:37:29;;;;;;;415.33;279.27;;;;;;;;;;5017402;28;20508;-51
2022/08/01 13:39:55;;;;;;;436.17;286.83;;;;;;;;;;5024806;28;20580;-51
2022/08/01 13:42:21;;;;;;;432.88;284.33;;;;;;;;;;5016640;28;20220;-51
2022/08/01 13:44:47;;;;;;;407.15;265.83;;;;;;;;;;5019750;28;20220;-51
2022/08/01 13:47:13;;;;;;;423.65;269.08;;;;;;;;;;5019586;28;20231;-51
2022/08/01 13:49:39;;;;;;;419.80;267.80;;;;;;;;;;5020086;28;20227;-51
2022/08/01 13:52:08;;;;;;;453.33;289.23;;;;;;;;;;5014370;28;20203;-51
2022/08/01 13:54:35;;;;;;;425.55;279.08;;;;;;;;;;5013315;28;20632;-51
2022/08/01 13:57:01;;;;;;;453.92;283.92;;;;;;;;;;5015329;28;20236;-51